sensor_id;sensor_type;location;lat;lon;timestamp;pressure;altitude;pressure_sealevel;temperature;humidity
10992;BME280;5549;47.028;15.514;2023-07-20T00:01:11;96136.41;;;22.48;61.60
10992;BME280;5549;47.028;15.514;2023-07-20T00:03:40;96133.53;;;22.56;61.85
10992;BME280;5549;47.028;15.514;2023-07-20T00:06:11;96118.06;;;22.58;60.08
10992;BME280;5549;47.028;15.514;2023-07-20T00:08:39;96129.81;;;22.51;60.93
10992;BME280;5549;47.028;15.514;2023-07-20T00:11:11;96128.38;;;22.55;60.84
10992;BME280;5549;47.028;15.514;2023-07-20T00:13:44;96134.34;;;22.50;60.62
10992;BME280;5549;47.028;15.514;2023-07-20T00:16:14;96134.34;;;22.50;60.77
10992;BME280;5549;47.028;15.514;2023-07-20T00:18:44;96134.34;;;22.50;59.98
10992;BME280;5549;47.028;15.514;2023-07-20T00:21:13;96137.22;;;22.55;58.51
10992;BME280;5549;47.028;15.514;2023-07-20T00:23:40;96132.94;;;22.41;59.07
10992;BME280;5549;47.028;15.514;2023-07-20T00:26:12;96128.38;;;22.48;59.62
10992;BME280;5549;47.028;15.514;2023-07-20T00:28:42;96132.28;;;22.52;60.52
10992;BME280;5549;47.028;15.514;2023-07-20T00:31:13;96131.06;;;22.55;60.71
10992;BME280;5549;47.028;15.514;2023-07-20T00:33:41;96138.06;;;22.56;61.71
10992;BME280;5549;47.028;15.514;2023-07-20T00:36:08;96126.75;;;22.47;62.59
10992;BME280;5549;47.028;15.514;2023-07-20T00:38:38;96127.34;;;22.49;62.42
10992;BME280;5549;47.028;15.514;2023-07-20T00:41:07;96127.78;;;22.46;62.70
10992;BME280;5549;47.028;15.514;2023-07-20T00:43:36;96108.84;;;22.48;61.83
10992;BME280;5549;47.028;15.514;2023-07-20T00:46:07;96116.03;;;22.47;61.44
10992;BME280;5549;47.028;15.514;2023-07-20T00:48:35;96125.72;;;22.48;61.34
10992;BME280;5549;47.028;15.514;2023-07-20T00:51:03;96118.72;;;22.47;60.76
10992;BME280;5549;47.028;15.514;2023-07-20T00:53:34;96119.53;;;22.48;59.39
10992;BME280;5549;47.028;15.514;2023-07-20T00:56:04;96130.47;;;22.46;60.07
10992;BME280;5549;47.028;15.514;2023-07-20T00:58:35;96125.94;;;22.47;59.77
10992;BME280;5549;47.028;15.514;2023-07-20T01:01:03;96137.63;;;22.52;59.79
10992;BME280;5549;47.028;15.514;2023-07-20T01:03:35;96123.84;;;22.49;60.38
10992;BME280;5549;47.028;15.514;2023-07-20T01:06:14;96124.28;;;22.46;59.43
10992;BME280;5549;47.028;15.514;2023-07-20T01:09:05;96119.16;;;22.44;58.66
10992;BME280;5549;47.028;15.514;2023-07-20T01:11:41;96118.72;;;22.47;58.84
10992;BME280;5549;47.028;15.514;2023-07-20T01:14:12;96105.72;;;22.51;56.47
10992;BME280;5549;47.028;15.514;2023-07-20T01:16:42;96114.41;;;22.46;56.92
10992;BME280;5549;47.028;15.514;2023-07-20T01:19:13;96096.88;;;22.50;56.00
10992;BME280;5549;47.028;15.514;2023-07-20T01:21:50;96103.06;;;22.51;55.48
10992;BME280;5549;47.028;15.514;2023-07-20T01:28:14;96103.66;;;22.53;60.06
10992;BME280;5549;47.028;15.514;2023-07-20T01:30:59;96107.22;;;22.40;60.70
10992;BME280;5549;47.028;15.514;2023-07-20T01:33:33;96105.16;;;22.42;60.94
10992;BME280;5549;47.028;15.514;2023-07-20T01:36:04;96103.94;;;22.38;61.15
10992;BME280;5549;47.028;15.514;2023-07-20T01:38:37;96114.22;;;22.41;61.80
10992;BME280;5549;47.028;15.514;2023-07-20T01:41:11;96113.81;;;22.37;61.96
10992;BME280;5549;47.028;15.514;2023-07-20T01:43:45;96115.84;;;22.42;62.10
10992;BME280;5549;47.028;15.514;2023-07-20T01:46:14;96114.81;;;22.43;62.74
10992;BME280;5549;47.028;15.514;2023-07-20T01:48:52;96120.44;;;22.35;63.40
10992;BME280;5549;47.028;15.514;2023-07-20T01:51:20;96123.06;;;22.41;62.83
10992;BME280;5549;47.028;15.514;2023-07-20T01:53:52;96125.53;;;22.43;63.67
10992;BME280;5549;47.028;15.514;2023-07-20T01:56:20;96124.13;;;22.34;64.17
10992;BME280;5549;47.028;15.514;2023-07-20T01:58:50;96126.19;;;22.32;64.79
10992;BME280;5549;47.028;15.514;2023-07-20T02:01:18;96130.34;;;22.28;65.88
10992;BME280;5549;47.028;15.514;2023-07-20T02:03:47;96128.25;;;22.30;66.12
10992;BME280;5549;47.028;15.514;2023-07-20T02:06:18;96137.31;;;22.29;65.53
10992;BME280;5549;47.028;15.514;2023-07-20T02:08:46;96135.69;;;22.28;65.82
10992;BME280;5549;47.028;15.514;2023-07-20T02:11:14;96145.16;;;22.24;65.72
10992;BME280;5549;47.028;15.514;2023-07-20T02:13:42;96150.72;;;22.22;65.80
10992;BME280;5549;47.028;15.514;2023-07-20T02:16:11;96145.59;;;22.21;65.59
10992;BME280;5549;47.028;15.514;2023-07-20T02:18:39;96150.50;;;22.24;65.90
10992;BME280;5549;47.028;15.514;2023-07-20T02:21:06;96147.66;;;22.19;65.98
10992;BME280;5549;47.028;15.514;2023-07-20T02:23:35;96152.59;;;22.15;65.44
10992;BME280;5549;47.028;15.514;2023-07-20T02:26:03;96146.22;;;22.16;65.30
10992;BME280;5549;47.028;15.514;2023-07-20T02:28:31;96152.38;;;22.17;65.42
10992;BME280;5549;47.028;15.514;2023-07-20T02:30:59;96156.31;;;22.14;66.10
10992;BME280;5549;47.028;15.514;2023-07-20T02:33:27;96158.78;;;22.16;65.47
10992;BME280;5549;47.028;15.514;2023-07-20T02:35:54;96158.78;;;22.09;64.94
10992;BME280;5549;47.028;15.514;2023-07-20T02:38:23;96166.00;;;22.08;64.42
10992;BME280;5549;47.028;15.514;2023-07-20T02:40:52;96162.50;;;21.95;63.37
10992;BME280;5549;47.028;15.514;2023-07-20T02:43:20;96167.66;;;21.90;63.21
10992;BME280;5549;47.028;15.514;2023-07-20T02:45:47;96166.41;;;21.92;63.36
10992;BME280;5549;47.028;15.514;2023-07-20T02:48:15;96171.56;;;21.94;63.03
10992;BME280;5549;47.028;15.514;2023-07-20T02:50:44;96171.16;;;21.90;62.67
10992;BME280;5549;47.028;15.514;2023-07-20T02:53:11;96182.47;;;21.92;61.31
10992;BME280;5549;47.028;15.514;2023-07-20T02:55:41;96179.38;;;21.95;62.13
10992;BME280;5549;47.028;15.514;2023-07-20T02:58:10;96188.88;;;21.78;59.67
10992;BME280;5549;47.028;15.514;2023-07-20T03:00:38;96180.84;;;21.78;58.28
10992;BME280;5549;47.028;15.514;2023-07-20T03:03:05;96183.09;;;21.74;57.18
10992;BME280;5549;47.028;15.514;2023-07-20T03:05:35;96172.81;;;21.85;58.75
10992;BME280;5549;47.028;15.514;2023-07-20T03:08:05;96170.34;;;21.83;58.74
10992;BME280;5549;47.028;15.514;2023-07-20T03:10:32;96175.72;;;21.76;58.78
10992;BME280;5549;47.028;15.514;2023-07-20T03:13:04;96170.16;;;21.78;58.77
10992;BME280;5549;47.028;15.514;2023-07-20T03:15:38;96171.16;;;21.84;58.38
10992;BME280;5549;47.028;15.514;2023-07-20T03:18:07;96170.75;;;21.87;56.97
10992;BME280;5549;47.028;15.514;2023-07-20T03:20:38;96170.34;;;21.90;56.87
10992;BME280;5549;47.028;15.514;2023-07-20T03:23:08;96172.19;;;21.89;57.15
10992;BME280;5549;47.028;15.514;2023-07-20T03:25:38;96175.47;;;21.91;55.98
10992;BME280;5549;47.028;15.514;2023-07-20T03:28:05;96175.69;;;21.90;55.06
10992;BME280;5549;47.028;15.514;2023-07-20T03:30:35;96176.91;;;21.94;54.15
10992;BME280;5549;47.028;15.514;2023-07-20T03:33:02;96170.72;;;21.93;53.43
10992;BME280;5549;47.028;15.514;2023-07-20T03:35:31;96171.97;;;21.97;52.97
10992;BME280;5549;47.028;15.514;2023-07-20T03:37:58;96174.44;;;22.05;52.88
10992;BME280;5549;47.028;15.514;2023-07-20T03:40:26;96177.31;;;22.11;52.23
10992;BME280;5549;47.028;15.514;2023-07-20T03:42:53;96171.75;;;22.12;53.12
10992;BME280;5549;47.028;15.514;2023-07-20T03:45:21;96168.66;;;22.08;52.96
10992;BME280;5549;47.028;15.514;2023-07-20T03:47:53;96176.28;;;22.12;51.72
10992;BME280;5549;47.028;15.514;2023-07-20T03:50:21;96185.53;;;22.16;52.52
10992;BME280;5549;47.028;15.514;2023-07-20T03:52:50;96194.16;;;22.18;51.39
10992;BME280;5549;47.028;15.514;2023-07-20T03:55:26;96191.28;;;22.19;51.60
10992;BME280;5549;47.028;15.514;2023-07-20T03:58:13;96191.28;;;22.13;51.17
10992;BME280;5549;47.028;15.514;2023-07-20T04:00:51;96193.56;;;22.09;51.61
10992;BME280;5549;47.028;15.514;2023-07-20T04:03:40;96189.22;;;22.15;51.77
10992;BME280;5549;47.028;15.514;2023-07-20T04:06:11;96188.00;;;21.97;52.54
10992;BME280;5549;47.028;15.514;2023-07-20T04:08:54;96188.22;;;22.02;52.00
10992;BME280;5549;47.028;15.514;2023-07-20T04:11:31;96182.66;;;21.91;52.22
10992;BME280;5549;47.028;15.514;2023-07-20T04:14:18;96182.69;;;21.84;51.95
10992;BME280;5549;47.028;15.514;2023-07-20T04:16:57;96182.28;;;21.81;52.28
10992;BME280;5549;47.028;15.514;2023-07-20T04:19:34;96189.44;;;21.93;52.21
10992;BME280;5549;47.028;15.514;2023-07-20T04:22:05;96191.94;;;21.82;52.10
10992;BME280;5549;47.028;15.514;2023-07-20T04:24:39;96188.88;;;21.78;51.77
10992;BME280;5549;47.028;15.514;2023-07-20T04:27:11;96183.06;;;21.94;51.37
10992;BME280;5549;47.028;15.514;2023-07-20T04:29:41;96182.84;;;22.16;51.35
10992;BME280;5549;47.028;15.514;2023-07-20T04:32:14;96194.31;;;22.29;51.30
10992;BME280;5549;47.028;15.514;2023-07-20T04:34:54;96207.66;;;22.42;51.28
10992;BME280;5549;47.028;15.514;2023-07-20T04:37:25;96205.63;;;22.38;51.29
10992;BME280;5549;47.028;15.514;2023-07-20T04:39:58;96204.34;;;22.47;51.30
10992;BME280;5549;47.028;15.514;2023-07-20T04:42:27;96201.72;;;22.34;51.25
10992;BME280;5549;47.028;15.514;2023-07-20T04:45:02;96208.13;;;22.26;50.99
10992;BME280;5549;47.028;15.514;2023-07-20T04:47:34;96207.34;;;22.13;51.12
10992;BME280;5549;47.028;15.514;2023-07-20T04:50:12;96207.53;;;22.18;50.83
10992;BME280;5549;47.028;15.514;2023-07-20T04:52:43;96206.47;;;22.32;51.01
10992;BME280;5549;47.028;15.514;2023-07-20T04:55:14;96205.06;;;22.16;51.51
10992;BME280;5549;47.028;15.514;2023-07-20T04:57:47;96204.81;;;22.31;51.37
10992;BME280;5549;47.028;15.514;2023-07-20T05:00:19;96198.84;;;22.29;51.28
10992;BME280;5549;47.028;15.514;2023-07-20T05:02:51;96209.81;;;22.14;51.57
10992;BME280;5549;47.028;15.514;2023-07-20T05:05:23;96210.59;;;22.21;51.41
10992;BME280;5549;47.028;15.514;2023-07-20T05:07:55;96216.34;;;22.25;51.33
10992;BME280;5549;47.028;15.514;2023-07-20T05:10:25;96216.34;;;22.31;51.73
10992;BME280;5549;47.028;15.514;2023-07-20T05:12:52;96210.56;;;22.34;51.91
10992;BME280;5549;47.028;15.514;2023-07-20T05:15:20;96210.78;;;22.26;51.34
10992;BME280;5549;47.028;15.514;2023-07-20T05:17:48;96217.50;;;22.49;51.10
10992;BME280;5549;47.028;15.514;2023-07-20T05:20:16;96221.63;;;22.51;51.61
10992;BME280;5549;47.028;15.514;2023-07-20T05:22:48;96229.19;;;22.67;51.84
10992;BME280;5549;47.028;15.514;2023-07-20T05:25:15;96228.31;;;22.87;53.06
10992;BME280;5549;47.028;15.514;2023-07-20T05:27:47;96225.22;;;22.90;56.26
10992;BME280;5549;47.028;15.514;2023-07-20T05:30:17;96227.31;;;22.75;58.75
10992;BME280;5549;47.028;15.514;2023-07-20T05:32:48;96229.88;;;22.56;58.56
10992;BME280;5549;47.028;15.514;2023-07-20T05:35:18;96231.28;;;22.52;58.05
10992;BME280;5549;47.028;15.514;2023-07-20T05:37:50;96229.44;;;22.59;58.42
10992;BME280;5549;47.028;15.514;2023-07-20T05:40:19;96231.88;;;22.67;55.77
10992;BME280;5549;47.028;15.514;2023-07-20T05:42:48;96231.44;;;22.70;56.78
10992;BME280;5549;47.028;15.514;2023-07-20T05:45:18;96238.25;;;22.80;57.13
10992;BME280;5549;47.028;15.514;2023-07-20T05:47:46;96234.53;;;22.81;57.37
10992;BME280;5549;47.028;15.514;2023-07-20T05:50:16;96238.03;;;22.75;55.74
10992;BME280;5549;47.028;15.514;2023-07-20T05:52:44;96241.31;;;22.83;57.74
10992;BME280;5549;47.028;15.514;2023-07-20T05:55:13;96247.06;;;22.87;58.57
10992;BME280;5549;47.028;15.514;2023-07-20T05:57:40;96244.19;;;22.82;59.61
10992;BME280;5549;47.028;15.514;2023-07-20T06:00:13;96247.31;;;22.72;60.96
10992;BME280;5549;47.028;15.514;2023-07-20T06:02:41;96251.91;;;22.45;62.46
10992;BME280;5549;47.028;15.514;2023-07-20T06:05:09;96246.31;;;22.53;62.50
10992;BME280;5549;47.028;15.514;2023-07-20T06:07:37;96248.53;;;22.69;61.12
10992;BME280;5549;47.028;15.514;2023-07-20T06:10:07;96241.31;;;22.83;60.80
10992;BME280;5549;47.028;15.514;2023-07-20T06:12:38;96244.19;;;22.82;60.22
10992;BME280;5549;47.028;15.514;2023-07-20T06:15:24;96251.66;;;23.11;63.73
10992;BME280;5549;47.028;15.514;2023-07-20T06:17:55;96245.38;;;23.30;64.28
10992;BME280;5549;47.028;15.514;2023-07-20T06:20:24;96250.19;;;23.47;63.81
10992;BME280;5549;47.028;15.514;2023-07-20T06:22:52;96257.16;;;23.61;62.14
10992;BME280;5549;47.028;15.514;2023-07-20T06:25:22;96255.19;;;23.75;61.09
10992;BME280;5549;47.028;15.514;2023-07-20T06:27:54;96249.25;;;23.91;60.17
10992;BME280;5549;47.028;15.514;2023-07-20T06:30:23;96249.81;;;23.99;58.39
10992;BME280;5549;47.028;15.514;2023-07-20T06:32:52;96248.63;;;24.14;58.49
10992;BME280;5549;47.028;15.514;2023-07-20T06:35:19;96251.41;;;24.25;57.54
10992;BME280;5549;47.028;15.514;2023-07-20T06:37:47;96253.50;;;24.30;56.73
10992;BME280;5549;47.028;15.514;2023-07-20T06:40:17;96254.69;;;24.34;56.06
10992;BME280;5549;47.028;15.514;2023-07-20T06:42:45;96258.28;;;24.46;55.76
10992;BME280;5549;47.028;15.514;2023-07-20T06:45:15;96261.09;;;24.51;54.88
10992;BME280;5549;47.028;15.514;2023-07-20T06:47:43;96263.88;;;24.63;54.61
10992;BME280;5549;47.028;15.514;2023-07-20T06:50:11;96265.56;;;24.76;56.24
10992;BME280;5549;47.028;15.514;2023-07-20T06:52:39;96258.84;;;24.85;52.81
10992;BME280;5549;47.028;15.514;2023-07-20T06:55:08;96261.41;;;24.98;55.71
10992;BME280;5549;47.028;15.514;2023-07-20T06:57:38;96257.22;;;25.02;56.05
10992;BME280;5549;47.028;15.514;2023-07-20T07:00:07;96262.88;;;25.12;56.31
10992;BME280;5549;47.028;15.514;2023-07-20T07:02:38;96251.56;;;25.22;55.79
10992;BME280;5549;47.028;15.514;2023-07-20T07:05:07;96258.50;;;25.30;56.72
10992;BME280;5549;47.028;15.514;2023-07-20T07:07:35;96264.59;;;25.37;56.13
10992;BME280;5549;47.028;15.514;2023-07-20T07:10:03;96271.88;;;25.48;56.07
10992;BME280;5549;47.028;15.514;2023-07-20T07:12:33;96274.47;;;25.54;56.78
10992;BME280;5549;47.028;15.514;2023-07-20T07:15:01;96280.31;;;25.63;57.08
10992;BME280;5549;47.028;15.514;2023-07-20T07:17:31;96280.25;;;25.70;57.18
10992;BME280;5549;47.028;15.514;2023-07-20T07:20:00;96276.88;;;25.74;57.43
10992;BME280;5549;47.028;15.514;2023-07-20T07:26:29;96280.28;;;25.93;59.29
10992;BME280;5549;47.028;15.514;2023-07-20T07:28:57;96276.91;;;25.98;60.04
10992;BME280;5549;47.028;15.514;2023-07-20T07:31:25;96274.81;;;26.00;60.18
10992;BME280;5549;47.028;15.514;2023-07-20T07:33:55;96278.34;;;26.12;59.38
10992;BME280;5549;47.028;15.514;2023-07-20T07:36:24;96270.09;;;25.83;57.31
10992;BME280;5549;47.028;15.514;2023-07-20T07:38:52;96263.56;;;25.91;57.39
10992;BME280;5549;47.028;15.514;2023-07-20T07:41:21;96276.00;;;26.04;58.70
10992;BME280;5549;47.028;15.514;2023-07-20T07:43:52;96271.44;;;26.04;55.38
10992;BME280;5549;47.028;15.514;2023-07-20T07:46:21;96264.88;;;26.00;52.60
10992;BME280;5549;47.028;15.514;2023-07-20T07:48:49;96275.06;;;26.10;54.93
10992;BME280;5549;47.028;15.514;2023-07-20T07:51:19;96275.31;;;26.08;53.67
10992;BME280;5549;47.028;15.514;2023-07-20T07:53:48;96274.38;;;26.14;54.97
10992;BME280;5549;47.028;15.514;2023-07-20T07:56:18;96269.19;;;25.89;54.57
10992;BME280;5549;47.028;15.514;2023-07-20T07:58:49;96274.41;;;25.73;55.41
10992;BME280;5549;47.028;15.514;2023-07-20T08:01:18;96264.03;;;26.00;53.91
10992;BME280;5549;47.028;15.514;2023-07-20T08:03:48;96269.94;;;26.20;54.97
10992;BME280;5549;47.028;15.514;2023-07-20T08:06:16;96272.53;;;26.38;52.96
10992;BME280;5549;47.028;15.514;2023-07-20T08:08:43;96261.88;;;26.43;49.89
10992;BME280;5549;47.028;15.514;2023-07-20T08:11:14;96275.34;;;26.43;51.63
10992;BME280;5549;47.028;15.514;2023-07-20T08:13:44;96273.56;;;26.49;51.96
10992;BME280;5549;47.028;15.514;2023-07-20T08:16:11;96273.56;;;26.61;55.11
10992;BME280;5549;47.028;15.514;2023-07-20T08:18:40;96281.25;;;26.80;55.86
10992;BME280;5549;47.028;15.514;2023-07-20T08:21:10;96285.44;;;26.88;54.28
10992;BME280;5549;47.028;15.514;2023-07-20T08:23:37;96281.50;;;26.79;50.57
10992;BME280;5549;47.028;15.514;2023-07-20T08:26:07;96278.84;;;26.56;53.93
10992;BME280;5549;47.028;15.514;2023-07-20T08:28:39;96277.06;;;26.73;54.15
10992;BME280;5549;47.028;15.514;2023-07-20T08:31:06;96279.34;;;27.04;54.55
10992;BME280;5549;47.028;15.514;2023-07-20T08:33:36;96282.38;;;26.96;54.59
10992;BME280;5549;47.028;15.514;2023-07-20T08:36:06;96271.47;;;27.14;52.67
10992;BME280;5549;47.028;15.514;2023-07-20T08:38:34;96268.09;;;27.07;53.20
10992;BME280;5549;47.028;15.514;2023-07-20T08:41:01;96275.78;;;27.44;49.91
10992;BME280;5549;47.028;15.514;2023-07-20T08:43:31;96277.03;;;27.53;50.18
10992;BME280;5549;47.028;15.514;2023-07-20T08:46:04;96279.56;;;27.60;51.89
10992;BME280;5549;47.028;15.514;2023-07-20T08:48:33;96274.91;;;27.84;47.01
10992;BME280;5549;47.028;15.514;2023-07-20T08:51:02;96283.91;;;28.06;45.18
10992;BME280;5549;47.028;15.514;2023-07-20T08:53:32;96275.41;;;28.14;48.09
10992;BME280;5549;47.028;15.514;2023-07-20T08:56:02;96270.66;;;28.21;48.55
10992;BME280;5549;47.028;15.514;2023-07-20T08:58:31;96276.66;;;28.23;48.87
10992;BME280;5549;47.028;15.514;2023-07-20T09:01:00;96275.97;;;28.50;49.99
10992;BME280;5549;47.028;15.514;2023-07-20T09:03:30;96268.44;;;28.73;46.79
10992;BME280;5549;47.028;15.514;2023-07-20T09:06:00;96275.31;;;28.81;46.79
10992;BME280;5549;47.028;15.514;2023-07-20T09:08:28;96274.97;;;28.94;43.94
10992;BME280;5549;47.028;15.514;2023-07-20T09:10:55;96274.16;;;28.94;45.52
10992;BME280;5549;47.028;15.514;2023-07-20T09:13:25;96275.16;;;28.71;44.33
10992;BME280;5549;47.028;15.514;2023-07-20T09:15:55;96270.28;;;29.12;42.92
10992;BME280;5549;47.028;15.514;2023-07-20T09:18:32;96260.97;;;29.24;44.92
10992;BME280;5549;47.028;15.514;2023-07-20T09:21:03;96256.84;;;29.17;45.81
10992;BME280;5549;47.028;15.514;2023-07-20T09:23:34;96262.59;;;29.47;43.40
10992;BME280;5549;47.028;15.514;2023-07-20T09:26:10;96260.25;;;29.34;44.95
10992;BME280;5549;47.028;15.514;2023-07-20T09:28:42;96268.13;;;29.57;45.81
10992;BME280;5549;47.028;15.514;2023-07-20T09:31:16;96264.63;;;29.57;45.13
10992;BME280;5549;47.028;15.514;2023-07-20T09:33:47;96259.31;;;29.45;47.31
10992;BME280;5549;47.028;15.514;2023-07-20T09:36:15;96263.31;;;29.91;42.77
10992;BME280;5549;47.028;15.514;2023-07-20T09:38:43;96259.50;;;29.60;42.32
10992;BME280;5549;47.028;15.514;2023-07-20T09:41:14;96261.38;;;29.87;42.26
10992;BME280;5549;47.028;15.514;2023-07-20T09:43:43;96262.06;;;30.04;43.49
10992;BME280;5549;47.028;15.514;2023-07-20T09:46:13;96265.19;;;30.23;41.15
10992;BME280;5549;47.028;15.514;2023-07-20T09:48:53;96260.91;;;30.32;44.18
10992;BME280;5549;47.028;15.514;2023-07-20T09:51:23;96259.88;;;30.38;43.75
10992;BME280;5549;47.028;15.514;2023-07-20T09:53:53;96257.47;;;30.42;43.78
10992;BME280;5549;47.028;15.514;2023-07-20T09:56:22;96265.63;;;30.47;43.12
10992;BME280;5549;47.028;15.514;2023-07-20T09:58:50;96266.19;;;30.12;39.88
10992;BME280;5549;47.028;15.514;2023-07-20T10:01:21;96271.91;;;29.83;43.30
10992;BME280;5549;47.028;15.514;2023-07-20T10:03:55;96267.03;;;30.17;44.64
10992;BME280;5549;47.028;15.514;2023-07-20T10:06:29;96271.28;;;30.03;47.43
10992;BME280;5549;47.028;15.514;2023-07-20T10:09:02;96263.59;;;29.95;45.96
10992;BME280;5549;47.028;15.514;2023-07-20T10:11:34;96268.97;;;30.22;42.32
10992;BME280;5549;47.028;15.514;2023-07-20T10:14:04;96261.44;;;29.97;42.84
10992;BME280;5549;47.028;15.514;2023-07-20T10:16:35;96265.19;;;29.91;45.24
10992;BME280;5549;47.028;15.514;2023-07-20T10:19:11;96253.19;;;29.82;44.78
10992;BME280;5549;47.028;15.514;2023-07-20T10:21:44;96250.44;;;30.04;43.24
10992;BME280;5549;47.028;15.514;2023-07-20T10:24:16;96259.13;;;29.79;44.22
10992;BME280;5549;47.028;15.514;2023-07-20T10:26:48;96256.84;;;29.97;45.64
10992;BME280;5549;47.028;15.514;2023-07-20T10:29:17;96258.88;;;30.12;44.68
10992;BME280;5549;47.028;15.514;2023-07-20T10:31:45;96260.03;;;30.21;43.36
10992;BME280;5549;47.028;15.514;2023-07-20T10:34:16;96250.38;;;30.36;45.30
10992;BME280;5549;47.028;15.514;2023-07-20T10:36:47;96254.09;;;30.24;41.72
10992;BME280;5549;47.028;15.514;2023-07-20T10:39:31;96249.38;;;30.47;42.42
10992;BME280;5549;47.028;15.514;2023-07-20T10:42:03;96246.25;;;30.65;42.86
10992;BME280;5549;47.028;15.514;2023-07-20T10:44:34;96248.84;;;30.50;41.29
10992;BME280;5549;47.028;15.514;2023-07-20T10:47:10;96240.56;;;30.67;37.50
10992;BME280;5549;47.028;15.514;2023-07-20T10:50:01;96243.81;;;30.26;39.87
10992;BME280;5549;47.028;15.514;2023-07-20T10:52:37;96250.94;;;30.38;39.41
10992;BME280;5549;47.028;15.514;2023-07-20T10:55:11;96249.75;;;30.23;41.29
10992;BME280;5549;47.028;15.514;2023-07-20T10:57:43;96244.72;;;30.42;40.99
10992;BME280;5549;47.028;15.514;2023-07-20T11:00:32;96246.91;;;30.03;39.95
10992;BME280;5549;47.028;15.514;2023-07-20T11:03:00;96247.53;;;30.15;41.22
10992;BME280;5549;47.028;15.514;2023-07-20T11:05:37;96229.94;;;30.18;40.73
10992;BME280;5549;47.028;15.514;2023-07-20T11:08:10;96230.53;;;30.25;40.31
10992;BME280;5549;47.028;15.514;2023-07-20T11:10:37;96220.06;;;30.39;38.22
10992;BME280;5549;47.028;15.514;2023-07-20T11:13:19;96221.25;;;30.58;41.03
10992;BME280;5549;47.028;15.514;2023-07-20T11:16:02;96225.00;;;30.52;38.80
10992;BME280;5549;47.028;15.514;2023-07-20T11:18:32;96233.91;;;30.05;40.47
10992;BME280;5549;47.028;15.514;2023-07-20T11:21:01;96228.84;;;29.82;40.66
10992;BME280;5549;47.028;15.514;2023-07-20T11:23:30;96230.91;;;30.02;40.32
10992;BME280;5549;47.028;15.514;2023-07-20T11:25:59;96239.38;;;30.10;36.30
10992;BME280;5549;47.028;15.514;2023-07-20T11:28:30;96235.66;;;30.21;37.60
10992;BME280;5549;47.028;15.514;2023-07-20T11:30:58;96230.72;;;30.13;37.57
10992;BME280;5549;47.028;15.514;2023-07-20T11:33:27;96228.50;;;30.05;38.38
10992;BME280;5549;47.028;15.514;2023-07-20T11:35:57;96236.44;;;29.85;38.21
10992;BME280;5549;47.028;15.514;2023-07-20T11:38:26;96228.28;;;29.80;37.72
10992;BME280;5549;47.028;15.514;2023-07-20T11:40:54;96236.44;;;29.85;37.26
10992;BME280;5549;47.028;15.514;2023-07-20T11:43:24;96239.03;;;29.69;37.26
10992;BME280;5549;47.028;15.514;2023-07-20T11:45:55;96245.38;;;29.53;38.65
10992;BME280;5549;47.028;15.514;2023-07-20T11:48:23;96247.78;;;29.50;40.49
10992;BME280;5549;47.028;15.514;2023-07-20T11:50:51;96249.38;;;29.02;40.49
10992;BME280;5549;47.028;15.514;2023-07-20T11:53:37;96242.06;;;29.02;41.43
10992;BME280;5549;47.028;15.514;2023-07-20T11:56:07;96246.53;;;29.14;41.97
10992;BME280;5549;47.028;15.514;2023-07-20T11:58:35;96251.38;;;28.90;41.57
10992;BME280;5549;47.028;15.514;2023-07-20T12:01:02;96242.06;;;28.81;41.04
10992;BME280;5549;47.028;15.514;2023-07-20T12:03:32;96247.16;;;28.77;42.01
10992;BME280;5549;47.028;15.514;2023-07-20T12:06:07;96239.41;;;28.64;43.58
10992;BME280;5549;47.028;15.514;2023-07-20T12:08:42;96245.50;;;28.76;43.61
10992;BME280;5549;47.028;15.514;2023-07-20T12:11:10;96241.88;;;28.65;40.86
10992;BME280;5549;47.028;15.514;2023-07-20T12:13:43;96240.56;;;28.90;42.19
10992;BME280;5549;47.028;15.514;2023-07-20T12:16:13;96235.66;;;29.09;42.66
10992;BME280;5549;47.028;15.514;2023-07-20T12:18:42;96242.09;;;29.29;44.36
10992;BME280;5549;47.028;15.514;2023-07-20T12:21:10;96233.25;;;29.39;43.21
10992;BME280;5549;47.028;15.514;2023-07-20T12:23:40;96238.75;;;29.44;40.91
10992;BME280;5549;47.028;15.514;2023-07-20T12:26:10;96237.91;;;29.17;39.16
10992;BME280;5549;47.028;15.514;2023-07-20T12:28:41;96248.97;;;29.15;42.35
10992;BME280;5549;47.028;15.514;2023-07-20T12:31:11;96253.31;;;28.17;44.67
10992;BME280;5549;47.028;15.514;2023-07-20T12:33:39;96263.06;;;26.99;46.40
10992;BME280;5549;47.028;15.514;2023-07-20T12:36:10;96258.88;;;26.80;47.65
10992;BME280;5549;47.028;15.514;2023-07-20T12:38:38;96261.63;;;26.57;48.26
10992;BME280;5549;47.028;15.514;2023-07-20T12:41:07;96254.63;;;26.44;49.33
10992;BME280;5549;47.028;15.514;2023-07-20T12:43:35;96266.88;;;26.28;48.44
10992;BME280;5549;47.028;15.514;2023-07-20T12:46:02;96275.31;;;26.20;48.97
10992;BME280;5549;47.028;15.514;2023-07-20T12:48:30;96270.94;;;25.96;48.89
10992;BME280;5549;47.028;15.514;2023-07-20T12:50:59;96270.56;;;25.69;50.49
10992;BME280;5549;47.028;15.514;2023-07-20T12:53:27;96268.13;;;25.79;51.45
10992;BME280;5549;47.028;15.514;2023-07-20T12:55:55;96271.13;;;25.71;51.38
10992;BME280;5549;47.028;15.514;2023-07-20T12:58:26;96273.38;;;25.85;51.94
10992;BME280;5549;47.028;15.514;2023-07-20T13:00:54;96290.25;;;25.63;53.36
10992;BME280;5549;47.028;15.514;2023-07-20T13:03:22;96297.25;;;25.82;53.19
10992;BME280;5549;47.028;15.514;2023-07-20T13:05:50;96291.75;;;25.47;53.15
10992;BME280;5549;47.028;15.514;2023-07-20T13:08:19;96287.41;;;25.46;53.33
10992;BME280;5549;47.028;15.514;2023-07-20T13:10:51;96295.03;;;25.19;53.71
10992;BME280;5549;47.028;15.514;2023-07-20T13:13:19;96297.78;;;25.12;55.14
10992;BME280;5549;47.028;15.514;2023-07-20T13:15:48;96302.34;;;25.12;56.23
10992;BME280;5549;47.028;15.514;2023-07-20T13:18:16;96295.56;;;24.91;56.59
10992;BME280;5549;47.028;15.514;2023-07-20T13:20:46;96292.88;;;24.73;57.67
10992;BME280;5549;47.028;15.514;2023-07-20T13:23:16;96280.28;;;24.55;58.73
10992;BME280;5549;47.028;15.514;2023-07-20T13:25:46;96277.72;;;24.42;57.99